createdAt,value
2022-08-04T00:01:37.388Z,23.91
2022-08-04T00:04:13.139Z,23.81
2022-08-04T00:06:51.557Z,23.68
2022-08-04T00:09:37.366Z,23.57
2022-08-04T00:12:06.939Z,23.22
2022-08-04T00:14:41.768Z,23.31
2022-08-04T00:17:09.687Z,23.29
2022-08-04T00:19:42.141Z,23.44
2022-08-04T00:22:11.248Z,23.12
2022-08-04T00:24:38.848Z,23.40
2022-08-04T00:27:07.682Z,23.26
2022-08-04T00:29:38.247Z,23.49
2022-08-04T00:32:07.134Z,23.26
2022-08-04T00:34:36.278Z,23.69
2022-08-04T00:37:05.560Z,23.67
2022-08-04T00:39:33.652Z,23.75
2022-08-04T00:42:22.088Z,23.71
2022-08-04T00:45:17.420Z,23.66
2022-08-04T00:47:50.223Z,23.57
2022-08-04T00:50:34.590Z,23.56
2022-08-04T00:53:09.425Z,23.42
2022-08-04T00:55:54.241Z,23.05
2022-08-04T00:58:43.738Z,23.27
2022-08-04T01:01:39.703Z,23.29
2022-08-04T01:04:22.277Z,23.41
2022-08-04T01:06:56.360Z,23.49
2022-08-04T01:09:58.921Z,23.56
2022-08-04T01:12:41.091Z,23.62
2022-08-04T01:15:16.039Z,23.63
2022-08-04T01:17:59.850Z,23.51
2022-08-04T01:20:30.399Z,23.44
2022-08-04T01:23:03.519Z,23.48
2022-08-04T01:26:42.087Z,23.25
2022-08-04T01:29:14.181Z,22.62
2022-08-04T01:31:48.717Z,23.12
2022-08-04T01:34:19.156Z,22.83
2022-08-04T01:36:51.854Z,22.84
2022-08-04T01:39:39.724Z,22.70
2022-08-04T01:42:09.668Z,22.59
2022-08-04T01:44:39.397Z,22.71
2022-08-04T01:47:08.134Z,22.65
2022-08-04T01:49:39.945Z,22.53
2022-08-04T01:52:10.394Z,22.40
2022-08-04T01:54:39.887Z,22.13
2022-08-04T01:57:38.459Z,21.96
2022-08-04T01:59:59.042Z,22.05
2022-08-04T02:02:25.893Z,22.04
2022-08-04T02:04:52.885Z,21.98
2022-08-04T02:07:50.637Z,21.90
2022-08-04T02:10:51.655Z,21.78
2022-08-04T02:13:32.010Z,21.74
2022-08-04T02:16:04.116Z,21.69
2022-08-04T02:18:40.542Z,21.37
2022-08-04T02:21:07.694Z,21.59
2022-08-04T02:23:40.943Z,21.55
2022-08-04T02:26:22.330Z,21.66
2022-08-04T02:28:54.319Z,21.71
2022-08-04T02:31:29.003Z,21.72
2022-08-04T02:34:12.742Z,21.60
2022-08-04T02:36:42.313Z,21.35
2022-08-04T02:39:11.969Z,21.48
2022-08-04T02:41:40.215Z,21.51
2022-08-04T02:44:10.133Z,21.45
2022-08-04T02:46:39.062Z,21.60
2022-08-04T02:49:09.443Z,21.52
2022-08-04T02:51:43.009Z,21.47
2022-08-04T02:54:10.236Z,21.46
2022-08-04T02:56:38.858Z,21.34
2022-08-04T02:59:12.018Z,21.25
2022-08-04T03:01:56.482Z,21.21
2022-08-04T03:04:48.043Z,21.04
2022-08-04T03:07:50.938Z,21.18
2022-08-04T03:10:35.997Z,21.15
2022-08-04T03:13:24.513Z,21.14
2022-08-04T03:16:07.713Z,21.08
2022-08-04T03:18:57.680Z,20.95
2022-08-04T03:21:43.184Z,20.86
2022-08-04T03:24:34.198Z,20.80
2022-08-04T03:27:30.601Z,20.75
2022-08-04T03:30:05.025Z,20.69
2022-08-04T03:33:29.044Z,20.65
2022-08-04T03:35:58.460Z,20.62
2022-08-04T03:38:43.884Z,20.70
2022-08-04T03:42:05.181Z,20.87
2022-08-04T03:44:59.568Z,21.11
2022-08-04T03:47:54.477Z,21.29
2022-08-04T03:50:42.906Z,21.42
2022-08-04T03:53:44.922Z,21.51
2022-08-04T03:57:11.807Z,21.62
2022-08-04T04:00:00.150Z,21.83
2022-08-04T04:02:35.740Z,21.88
2022-08-04T04:05:58.776Z,22.04
2022-08-04T04:08:50.527Z,22.21
2022-08-04T04:11:57.543Z,22.39
2022-08-04T04:14:36.470Z,21.90
2022-08-04T04:17:09.192Z,22.55
2022-08-04T04:20:02.384Z,22.53
2022-08-04T04:22:59.997Z,22.73
2022-08-04T04:25:42.280Z,22.67
2022-08-04T04:28:46.467Z,22.95
2022-08-04T04:31:45.844Z,23.01
2022-08-04T04:34:21.747Z,23.17
2022-08-04T04:37:03.794Z,23.18
2022-08-04T04:40:05.618Z,23.45
2022-08-04T04:42:44.014Z,23.46
2022-08-04T04:45:20.780Z,23.38
2022-08-04T04:48:09.603Z,23.48
2022-08-04T04:50:53.058Z,23.61
2022-08-04T04:53:38.441Z,23.74
2022-08-04T04:56:08.410Z,23.86
2022-08-04T04:58:36.941Z,23.91
2022-08-04T05:01:06.562Z,23.99
2022-08-04T05:03:55.975Z,23.90
2022-08-04T05:06:57.439Z,24.32
2022-08-04T05:09:41.355Z,24.59
2022-08-04T05:14:30.929Z,24.68
2022-08-04T05:15:30.481Z,24.54
2022-08-04T05:18:01.228Z,24.91
2022-08-04T05:20:39.066Z,25.32
2022-08-04T05:23:30.502Z,25.39
2022-08-04T05:26:07.680Z,25.49
2022-08-04T05:28:45.484Z,25.44
2022-08-04T05:31:47.496Z,25.59
2022-08-04T05:34:20.784Z,25.16
2022-08-04T05:36:51.031Z,25.35
2022-08-04T05:39:21.897Z,25.28
2022-08-04T05:41:55.335Z,25.29
2022-08-04T05:44:27.762Z,25.24
2022-08-04T05:46:58.757Z,25.32
2022-08-04T05:49:28.260Z,25.20
2022-08-04T05:51:59.559Z,25.34
2022-08-04T05:54:27.931Z,25.43
2022-08-04T05:56:55.394Z,25.38
2022-08-04T05:59:25.892Z,25.06
2022-08-04T06:01:57.670Z,25.15
2022-08-04T06:04:32.336Z,24.94
2022-08-04T06:06:59.323Z,24.76
2022-08-04T06:09:26.845Z,24.94
2022-08-04T06:12:00.465Z,24.90
2022-08-04T06:14:43.115Z,25.34
2022-08-04T06:17:18.381Z,25.55
2022-08-04T06:20:19.985Z,25.48
2022-08-04T06:22:57.347Z,25.11
2022-08-04T06:25:28.481Z,24.95
2022-08-04T06:27:56.481Z,25.79
2022-08-04T06:30:27.063Z,25.75
2022-08-04T06:33:04.350Z,25.74
2022-08-04T06:35:33.487Z,25.71
2022-08-04T06:38:03.045Z,25.54
2022-08-04T06:40:33.697Z,25.46
2022-08-04T06:43:03.235Z,25.85
2022-08-04T06:45:31.776Z,26.12
2022-08-04T06:47:58.841Z,26.35
2022-08-04T06:51:24.436Z,26.46
2022-08-04T06:53:14.090Z,26.19
2022-08-04T06:55:44.278Z,26.71
2022-08-04T06:58:12.411Z,26.56
2022-08-04T07:00:41.707Z,26.77
2022-08-04T07:03:09.648Z,27.23
2022-08-04T07:05:36.928Z,27.24
2022-08-04T07:08:04.806Z,27.30
2022-08-04T07:10:32.150Z,27.20
2022-08-04T07:13:00.575Z,27.46
2022-08-04T07:15:28.270Z,27.66
2022-08-04T07:18:00.103Z,27.87
2022-08-04T07:20:30.501Z,28.05
2022-08-04T07:23:07.608Z,28.09
2022-08-04T07:26:00.731Z,28.31
2022-08-04T07:28:29.833Z,28.48
2022-08-04T07:30:58.223Z,28.62
2022-08-04T07:33:26.330Z,28.72
2022-08-04T07:36:05.175Z,28.70
2022-08-04T07:38:48.464Z,28.81
2022-08-04T07:41:38.325Z,28.78
2022-08-04T07:44:07.561Z,29.08
2022-08-04T07:46:35.274Z,29.16
2022-08-04T07:49:02.681Z,29.26
2022-08-04T07:51:31.042Z,29.36
2022-08-04T07:53:58.056Z,29.49
2022-08-04T07:56:28.141Z,29.46
2022-08-04T07:58:55.901Z,29.69
2022-08-04T08:01:26.974Z,29.74
2022-08-04T08:03:56.391Z,29.59
2022-08-04T08:06:32.769Z,29.95
2022-08-04T08:09:02.114Z,30.10
2022-08-04T08:12:36.407Z,30.16
2022-08-04T08:14:28.322Z,30.42
2022-08-04T08:16:55.203Z,30.47
2022-08-04T08:19:22.055Z,30.45
2022-08-04T08:21:59.061Z,30.47
2022-08-04T08:24:29.149Z,30.57
2022-08-04T08:26:56.963Z,30.66
2022-08-04T08:29:25.802Z,30.81
2022-08-04T08:31:57.338Z,30.84
2022-08-04T08:34:29.103Z,31.17
2022-08-04T08:37:15.195Z,31.18
2022-08-04T08:40:09.826Z,31.33
2022-08-04T08:42:43.039Z,31.42
2022-08-04T08:45:33.021Z,30.99
2022-08-04T08:48:23.922Z,31.63
2022-08-04T08:50:50.779Z,31.66
2022-08-04T08:53:26.868Z,31.67
2022-08-04T08:56:12.639Z,31.66
2022-08-04T08:59:15.231Z,31.66
2022-08-04T09:02:13.265Z,31.80
2022-08-04T09:05:09.312Z,31.83
2022-08-04T09:07:41.671Z,32.10
2022-08-04T09:10:19.892Z,32.15
2022-08-04T09:13:30.369Z,32.20
2022-08-04T09:16:07.551Z,32.07
2022-08-04T09:18:42.257Z,32.34
2022-08-04T09:21:17.692Z,31.81
2022-08-04T09:24:36.257Z,32.22
2022-08-04T09:27:05.420Z,32.10
2022-08-04T09:29:50.141Z,32.16
2022-08-04T09:32:32.263Z,32.22
2022-08-04T09:35:24.183Z,32.29
2022-08-04T09:38:03.471Z,32.40
2022-08-04T09:40:57.245Z,32.70
2022-08-04T09:44:42.717Z,32.97
2022-08-04T09:46:25.020Z,33.01
2022-08-04T09:49:15.064Z,33.18
2022-08-04T09:51:57.165Z,33.07
2022-08-04T09:54:44.359Z,33.14
2022-08-04T09:57:28.764Z,33.26
2022-08-04T10:00:16.566Z,33.07
2022-08-04T10:02:53.625Z,33.39
2022-08-04T10:05:44.811Z,32.80
2022-08-04T10:08:57.048Z,32.23
2022-08-04T10:11:55.461Z,32.12
2022-08-04T10:14:29.166Z,32.88
2022-08-04T10:17:20.761Z,33.01
2022-08-04T10:19:56.773Z,32.84
2022-08-04T10:22:49.635Z,33.22
2022-08-04T10:26:05.509Z,33.61
2022-08-04T10:28:49.654Z,33.15
2022-08-04T10:31:25.545Z,33.36
2022-08-04T10:34:20.715Z,33.77
2022-08-04T10:37:06.692Z,33.80
2022-08-04T10:40:17.726Z,33.63
2022-08-04T10:42:59.235Z,33.38
2022-08-04T10:45:45.107Z,33.15
2022-08-04T10:48:34.790Z,33.08
2022-08-04T10:51:08.029Z,33.17
2022-08-04T10:53:38.946Z,33.17
2022-08-04T10:56:18.137Z,33.44
2022-08-04T10:58:55.562Z,33.57
2022-08-04T11:02:02.849Z,33.41
2022-08-04T11:04:41.104Z,33.64
2022-08-04T11:07:09.220Z,33.66
2022-08-04T11:09:37.104Z,33.42
2022-08-04T11:12:16.993Z,33.77
2022-08-04T11:14:55.985Z,34.03
2022-08-04T11:17:29.122Z,33.96
2022-08-04T11:20:37.951Z,34.01
2022-08-04T11:23:14.046Z,33.94
2022-08-04T11:25:52.927Z,33.75
2022-08-04T11:28:32.263Z,33.73
2022-08-04T11:31:06.124Z,33.86
2022-08-04T11:33:57.938Z,33.92
2022-08-04T11:36:49.782Z,33.99
2022-08-04T11:39:57.790Z,34.12
2022-08-04T11:42:28.869Z,34.34
2022-08-04T11:45:20.245Z,34.36
2022-08-04T11:48:04.035Z,34.49
2022-08-04T11:50:41.525Z,34.56
2022-08-04T11:53:09.480Z,34.59
2022-08-04T11:56:06.918Z,34.29
2022-08-04T11:58:26.281Z,34.05
2022-08-04T12:01:36.192Z,33.82
2022-08-04T12:04:41.031Z,33.77
2022-08-04T12:07:30.424Z,33.91
2022-08-04T12:10:39.077Z,34.03
2022-08-04T12:13:09.152Z,34.20
2022-08-04T12:15:48.458Z,34.35
2022-08-04T12:18:25.167Z,34.71
2022-08-04T12:20:59.088Z,34.80
2022-08-04T12:23:41.480Z,34.88
2022-08-04T12:26:23.327Z,35.03
2022-08-04T12:29:13.555Z,35.23
2022-08-04T12:32:24.883Z,35.31
2022-08-04T12:35:08.419Z,34.68
2022-08-04T12:37:46.804Z,34.54
2022-08-04T12:40:29.209Z,34.07
2022-08-04T12:43:23.442Z,33.78
2022-08-04T12:45:53.849Z,33.67
2022-08-04T12:48:26.644Z,33.36
2022-08-04T12:50:56.667Z,33.40
2022-08-04T12:53:31.848Z,33.28
2022-08-04T12:56:01.626Z,33.25
2022-08-04T12:58:43.769Z,33.18
2022-08-04T13:02:06.826Z,33.27
2022-08-04T13:04:24.622Z,33.66
2022-08-04T13:07:12.371Z,34.04
2022-08-04T13:09:40.596Z,34.39
2022-08-04T13:12:14.489Z,34.42
2022-08-04T13:14:46.351Z,34.23
2022-08-04T13:17:13.415Z,33.98
2022-08-04T13:19:53.384Z,34.44
2022-08-04T13:22:29.068Z,34.04
2022-08-04T13:26:41.488Z,34.28
2022-08-04T13:27:55.511Z,34.52
2022-08-04T13:30:27.355Z,34.80
2022-08-04T13:33:00.897Z,35.00
2022-08-04T13:35:54.354Z,34.99
2022-08-04T13:38:18.141Z,34.90
2022-08-04T13:40:46.165Z,34.45
2022-08-04T13:44:15.796Z,34.89
2022-08-04T13:46:33.789Z,34.78
2022-08-04T13:52:10.554Z,34.69
2022-08-04T13:54:47.200Z,34.13
2022-08-04T13:57:30.327Z,34.25
2022-08-04T14:00:09.155Z,34.24
2022-08-04T14:02:42.345Z,34.30
2022-08-04T14:05:18.707Z,34.36
2022-08-04T14:07:50.795Z,34.41
2022-08-04T14:10:17.913Z,34.45
2022-08-04T14:12:50.561Z,34.34
2022-08-04T14:16:01.245Z,34.33
2022-08-04T14:18:32.680Z,34.09
2022-08-04T14:21:10.825Z,33.98
2022-08-04T14:23:51.488Z,33.81
2022-08-04T14:26:33.204Z,33.87
2022-08-04T14:29:28.643Z,34.08
2022-08-04T14:32:06.206Z,34.09
2022-08-04T14:34:42.515Z,34.13
2022-08-04T14:37:19.570Z,34.05
2022-08-04T14:40:17.542Z,34.03
2022-08-04T14:42:55.619Z,34.06
2022-08-04T14:45:32.592Z,33.94
2022-08-04T14:48:01.259Z,33.68
2022-08-04T14:50:34.254Z,33.89
2022-08-04T14:53:10.963Z,33.83
2022-08-04T14:55:39.833Z,33.91
2022-08-04T14:58:36.639Z,33.94
2022-08-04T15:00:58.577Z,33.60
2022-08-04T15:03:27.631Z,33.62
2022-08-04T15:06:05.231Z,33.69
2022-08-04T15:08:34.031Z,33.55
2022-08-04T15:11:02.982Z,33.57
2022-08-04T15:13:34.191Z,33.56
2022-08-04T15:16:06.478Z,33.53
2022-08-04T15:18:38.785Z,33.44
2022-08-04T15:21:08.014Z,32.95
2022-08-04T15:23:38.735Z,33.15
2022-08-04T15:26:09.832Z,33.30
2022-08-04T15:28:39.905Z,33.33
2022-08-04T15:31:10.340Z,33.23
2022-08-04T15:33:57.001Z,33.49
2022-08-04T15:36:56.262Z,33.41
2022-08-04T15:39:53.831Z,33.08
2022-08-04T15:42:37.165Z,32.85
2022-08-04T15:45:19.089Z,32.60
2022-08-04T15:48:15.773Z,32.84
2022-08-04T15:50:58.471Z,32.86
2022-08-04T15:54:01.303Z,32.66
2022-08-04T15:56:31.098Z,33.03
2022-08-04T15:58:58.723Z,32.80
2022-08-04T16:01:27.548Z,33.04
2022-08-04T16:04:00.811Z,33.06
2022-08-04T16:06:30.605Z,33.08
2022-08-04T16:08:59.962Z,33.06
2022-08-04T16:11:31.615Z,33.04
2022-08-04T16:13:59.166Z,33.07
2022-08-04T16:16:39.479Z,33.13
2022-08-04T16:19:10.328Z,33.05
2022-08-04T16:21:58.145Z,33.03
2022-08-04T16:24:37.985Z,33.08
2022-08-04T16:27:07.044Z,33.05
2022-08-04T16:29:48.050Z,33.01
2022-08-04T16:32:19.168Z,32.49
2022-08-04T16:34:56.742Z,32.98
2022-08-04T16:37:38.250Z,32.61
2022-08-04T16:40:33.767Z,32.97
2022-08-04T16:43:16.406Z,32.91
2022-08-04T16:45:47.608Z,32.90
2022-08-04T16:48:21.403Z,32.88
2022-08-04T16:50:53.329Z,32.40
2022-08-04T16:53:52.729Z,32.83
2022-08-04T16:56:18.917Z,32.77
2022-08-04T16:58:53.669Z,32.56
2022-08-04T17:01:33.236Z,32.62
2022-08-04T17:04:05.322Z,32.66
2022-08-04T17:06:44.674Z,32.43
2022-08-04T17:09:17.283Z,32.25
2022-08-04T17:11:46.120Z,32.67
2022-08-04T17:14:33.808Z,32.58
2022-08-04T17:17:02.594Z,32.51
2022-08-04T17:19:29.313Z,32.37
2022-08-04T17:22:20.549Z,32.36
2022-08-04T17:24:49.436Z,32.30
2022-08-04T17:28:08.749Z,32.26
2022-08-04T17:30:05.013Z,32.20
2022-08-04T17:32:32.769Z,31.88
2022-08-04T17:35:02.087Z,31.89
2022-08-04T17:37:41.208Z,31.95
2022-08-04T17:40:22.599Z,31.72
2022-08-04T17:44:03.084Z,31.71
2022-08-04T17:46:28.834Z,31.49
2022-08-04T17:48:59.647Z,31.11
2022-08-04T17:52:04.247Z,31.21
2022-08-04T17:54:37.367Z,31.09
2022-08-04T17:57:15.649Z,30.97
2022-08-04T17:59:55.565Z,30.83
2022-08-04T18:02:34.673Z,30.74
2022-08-04T18:05:07.992Z,30.65
2022-08-04T18:08:34.768Z,30.50
2022-08-04T18:10:54.355Z,30.31
2022-08-04T18:13:27.976Z,30.33
2022-08-04T18:16:03.362Z,30.27
2022-08-04T18:18:30.151Z,30.20
2022-08-04T18:20:59.654Z,30.00
2022-08-04T18:23:31.879Z,29.95
2022-08-04T18:26:02.496Z,29.99
2022-08-04T18:28:33.522Z,29.94
2022-08-04T18:31:01.959Z,29.88
2022-08-04T18:33:40.613Z,29.81
2022-08-04T18:36:32.615Z,29.42
2022-08-04T18:38:59.278Z,29.64
2022-08-04T18:42:00.941Z,29.54
2022-08-04T18:44:29.328Z,29.47
2022-08-04T18:46:57.056Z,29.41
2022-08-04T18:50:31.823Z,29.25
2022-08-04T18:52:15.199Z,29.01
2022-08-04T18:54:46.692Z,28.82
2022-08-04T18:58:00.720Z,28.73
2022-08-04T19:00:27.104Z,29.08
2022-08-04T19:02:57.357Z,28.60
2022-08-04T19:05:26.053Z,28.38
2022-08-04T19:10:54.335Z,28.80
2022-08-04T19:13:27.986Z,28.70
2022-08-04T19:15:54.844Z,28.67
2022-08-04T19:18:25.958Z,28.64
2022-08-04T19:20:55.419Z,28.59
2022-08-04T19:24:26.897Z,28.47
2022-08-04T19:26:17.692Z,28.41
2022-08-04T19:28:55.361Z,28.16
2022-08-04T19:31:34.077Z,28.34
2022-08-04T19:34:05.057Z,28.11
2022-08-04T19:36:35.075Z,28.23
2022-08-04T19:39:11.384Z,28.26
2022-08-04T19:42:06.265Z,28.22
2022-08-04T19:44:30.141Z,28.18
2022-08-04T19:47:00.748Z,27.99
2022-08-04T19:50:05.372Z,27.95
2022-08-04T19:52:33.790Z,28.03
2022-08-04T19:55:10.752Z,27.90
2022-08-04T19:57:46.426Z,27.93
2022-08-04T20:00:17.792Z,27.74
2022-08-04T20:03:01.338Z,27.77
2022-08-04T20:05:52.620Z,27.77
2022-08-04T20:08:15.951Z,27.60
2022-08-04T20:10:51.394Z,27.67
2022-08-04T20:13:20.172Z,27.60
2022-08-04T20:15:57.765Z,27.55
2022-08-04T20:18:35.976Z,27.39
2022-08-04T20:21:24.146Z,27.48
2022-08-04T20:23:55.552Z,27.40
2022-08-04T20:26:22.414Z,27.43
2022-08-04T20:28:52.463Z,27.40
2022-08-04T20:31:23.524Z,27.23
2022-08-04T20:33:58.730Z,27.35
2022-08-04T20:36:26.387Z,27.16
2022-08-04T20:38:54.575Z,27.29
2022-08-04T20:41:21.735Z,27.27
2022-08-04T20:43:49.889Z,27.24
2022-08-04T20:46:29.354Z,27.20
2022-08-04T20:48:57.837Z,27.09
2022-08-04T20:51:31.987Z,27.13
2022-08-04T20:54:02.318Z,27.07
2022-08-04T20:56:31.958Z,27.01
2022-08-04T20:59:00.077Z,26.90
2022-08-04T21:01:30.358Z,26.97
2022-08-04T21:04:28.331Z,26.79
2022-08-04T21:06:58.032Z,26.82
2022-08-04T21:09:37.546Z,26.76
2022-08-04T21:12:10.719Z,26.59
2022-08-04T21:14:53.943Z,26.48
2022-08-04T21:17:21.257Z,26.32
2022-08-04T21:20:12.665Z,26.18
2022-08-04T21:22:40.631Z,26.35
2022-08-04T21:25:15.829Z,26.37
2022-08-04T21:27:44.095Z,26.10
2022-08-04T21:30:25.980Z,26.32
2022-08-04T21:32:55.396Z,26.33
2022-08-04T21:35:36.898Z,26.31
2022-08-04T21:38:16.263Z,26.40
2022-08-04T21:40:53.911Z,26.38
2022-08-04T21:43:27.506Z,26.38
2022-08-04T21:45:56.904Z,26.39
2022-08-04T21:48:31.813Z,26.28
2022-08-04T21:51:57.206Z,26.16
2022-08-04T21:54:04.551Z,26.23
2022-08-04T21:56:33.046Z,26.21
2022-08-04T21:58:59.976Z,26.19
2022-08-04T22:01:49.981Z,26.19
2022-08-04T22:04:14.854Z,26.13
2022-08-04T22:06:42.160Z,25.92
2022-08-04T22:09:14.974Z,26.02
2022-08-04T22:14:34.759Z,25.83
2022-08-04T22:17:02.326Z,25.71
2022-08-04T22:19:39.640Z,25.60
2022-08-04T22:22:09.615Z,25.48
2022-08-04T22:24:42.002Z,25.40
2022-08-04T22:27:12.437Z,25.31
2022-08-04T22:29:39.487Z,25.23
2022-08-04T22:32:12.115Z,25.19
2022-08-04T22:34:45.382Z,25.07
2022-08-04T22:37:12.813Z,24.98
2022-08-04T22:39:56.387Z,24.87
2022-08-04T22:42:24.455Z,24.71
2022-08-04T22:44:52.743Z,24.68
2022-08-04T22:47:23.647Z,24.51
2022-08-04T22:50:01.643Z,24.20
2022-08-04T22:52:55.897Z,24.56
2022-08-04T22:55:23.761Z,24.42
2022-08-04T22:58:04.726Z,24.40
2022-08-04T23:00:32.463Z,24.37
2022-08-04T23:02:59.420Z,24.26
2022-08-04T23:05:29.242Z,24.30
2022-08-04T23:08:04.132Z,24.27
2022-08-04T23:10:33.078Z,24.27
2022-08-04T23:13:04.283Z,24.15
2022-08-04T23:15:33.673Z,24.06
2022-08-04T23:18:01.284Z,24.17
2022-08-04T23:20:33.083Z,24.11
2022-08-04T23:23:14.958Z,24.09
2022-08-04T23:26:07.859Z,24.04
2022-08-04T23:28:32.694Z,24.01
2022-08-04T23:30:59.475Z,23.96
2022-08-04T23:33:51.406Z,23.98
2022-08-04T23:36:14.318Z,24.03
2022-08-04T23:38:42.115Z,23.97
2022-08-04T23:41:13.502Z,24.04
2022-08-04T23:43:49.576Z,24.12
2022-08-04T23:46:23.210Z,24.05
2022-08-04T23:48:51.999Z,23.91
2022-08-04T23:51:19.244Z,23.94
2022-08-04T23:54:01.758Z,23.92
2022-08-04T23:56:35.564Z,23.86
2022-08-04T23:59:04.912Z,23.81
